Amesbury, Massachusetts
Current Conditions -  °F | °C
As of 6:54 PM on Wednesday 28 Jan 2015 (Local Time) from KLWM Reporting Station
Clear Clear  
Wind Chill: 15°   Ceiling: Unl
Heat Index: 21°   Visibility: 10mi
Dew Point:   Wind: 5mph
Humidity: 48%   Direction: 330°NNW
Pressure: 30.13"   Gusts: NA
Location:  42.86°N, 70.93°W
Report Text: KLWM 282354Z 33004KT 10SM CLR M06/M16 A3013 RMK AO2 SLP207 T10611156 11044 21067 53035
Loading
Personal Weather Stations






























Interactive Weather Map New forecast layout! Learn more

10-Day Weather Forecast

Advertisements
Track Severe Weather on mobile